Cuprija, Serbia

1:55 PM CEST on September 19, 2014 (GMT +0200)
ICENTRAL24 | Change Station
CLOSE
Current Station
Personal Weather Station
Location: Paracin, Central Serbia
Elevation: 423 ft
Nearby Weather Stations

Elev 423 ft 43.87 °N, 21.40 °E | Updated 2 seconds ago

Clear
Clear
77.9 °F
Feels Like 80 °F
N
8.1
Wind Variable Wind from SSE
Gusts 8.1 mph

Today
High -- | Low -- °F
--% Chance of Precip.
Yesterday
High -- | Low -- °F
Precip. -- in
6:17 AM 6:37 PM
Waning Crescent, 19% visible
Pressure 30.15 in
Visibility -9999.0 miles
Clouds
Heat Index 80 °F
Dew Point 62 °F
Humidity 58%
Rainfall 0.00 in
Snow Depth Not available.
UV Not available.
Pollen Not available.
Air Quality Not available.
Flu Activity Not available.
METAR LYNI 191130Z 17004KT 090V250 CAVOK 25/13 Q1021 NOSIG

More Conditions Fewer Conditions

Pressure 30.15 in
Visibility -9999.0 miles
Clouds
Heat Index 80 °F
Dew Point 62 °F
Humidity 58%
Rainfall 0.00 in
Snow Depth Not available.
UV Not available.
Pollen Not available.
Air Quality Not available.
Flu Activity Not available.
METAR LYNI 191130Z 17004KT 090V250 CAVOK 25/13 Q1021 NOSIG

More Conditions Fewer Conditions

10-Day Weather Forecast

Almanac

Astronomy

Sep. 19, 2014 Rise Set
Actual Time 6:17 AM CEST 6:37 PM CEST
Civil Twilight 5:49 AM CEST 7:06 PM CEST
Nautical Twilight 5:15 AM CEST 7:40 PM CEST
Astronomical Twilight 4:40 AM CEST 8:15 PM CEST
Moon 1:39 AM CEST 4:01 PM CEST
Length of Visible Light 13h 17m
Length of Day
12h 20m
Tomorrow will be 3m 0s shorter.
Waning Crescent, 19% of the Moon is Illuminated
Today
Waning Crescent
Sep 24
New
Oct 1
First Quarter
Oct 8
Full
Oct 15
Last Quarter

Community

WunderPhotos

Upload Photos

1,754,597 photos uploaded!

Nearby

Snow Depth

Not available.

Earthquake Activity

City Distance Mag. Time & Date
No recent earthquake activity has been reported nearby.
Minimum magnitude displayed is 2.5.

Coastal Water Temperatures

Place Temperature
No Stations Reporting

Nearby Weather Stations